ADDS TAF Board (Experimental) INFO

IDs: Format: Expanded Condensed

Updated at: 0330 UTC 25 Oct 2014

KIAH - Houston/Bush Intl, TX, US

Issued at 0302 UTC 25 Oct 2014
Time0253Z25/04Z25/05Z25/06Z25/07Z25/08Z25/09Z25/10Z25/11Z25/12Z25/13Z25/14Z25/15Z25/16Z
TypeOBSPRVLPRVLPRVLPRVLPRVLPRVLPRVLPRVLPRVLPRVLPRVLPRVLPRVL
VIS10>6>6>6>6>6>6>6>6>6>6>6>6>6
CIG----------------------------
CoverCLRSKCSKCSKCSKCSKCSKCSKCSKCSKCSKCSKCSKCSKC
FltCat--VFRVFRVFRVFRVFRVFRVFRVFRVFRVFRVFRVFRVFR
WX----------------------------
WDirVRBVRBVRBVRBVRBVRBVRBVRBVRBVRBVRBVRBVRBVRB
WSpd04444444444444
WGst----------------------------
R08/26
XWndVRBVRBVRBVRBVRBVRBVRBVRBVRBVRBVRBVRBVRBVRB
HWndVRBVRBVRBVRBVRBVRBVRBVRBVRBVRBVRBVRBVRBVRB
R09/27
XWndVRBVRBVRBVRBVRBVRBVRBVRBVRBVRBVRBVRBVRBVRB
HWndVRBVRBVRBVRBVRBVRBVRBVRBVRBVRBVRBVRBVRBVRB
R15/33
XWndVRBVRBVRBVRBVRBVRBVRBVRBVRBVRBVRBVRBVRBVRB
HWndVRBVRBVRBVRBVRBVRBVRBVRBVRBVRBVRBVRBVRBVRB
Raw TAF
KIAH 250302Z 2503/2606 VRB04KT P6SM SKC

Raw METAR
KIAH 250253Z 00000KT 10SM CLR 17/14 A3014 RMK AO2 SLP205 T01670144 51016

TAF Board Legend

Hazard VFR MVFR IFR LIFR
Visibility (sm) >5 3≤X≤5 1≤X<3 <1
Ceiling (100 ft) >30 10≤X≤30 5≤X<10 <5
Wind Speed (kt) <10 10≤X<20 20≤X<30 ≥30
Wind Gust (kt) <15 15≤X<25 25≤X<35 ≥35
Weather No Wx Reported VCTS,-TS,-FZRA TS,FZRA +TS,+FZRA


Page loaded:  03:30 UTC  |   08:30 PM Pacific  |   09:30 PM Mountain  |   10:30 PM Central  |   11:30 PM Eastern

 

ADVISORIES

FORECASTS

FORECASTS

OBSERVATIONS

USER TOOLS

ABOUT US